Time;durP1;ratioP1;P1;durP2;ratioP2;P2;SDS_P1;SDS_P2;PMS_P1;PMS_P2;Temp;Humidity;BMP_temperature;BMP_pressure;BME280_temperature;BME280_humidity;BME280_pressure;Samples;Min_cycle;Max_cycle;Signal;HPM_P1;HPM_P2
2021/01/24 00:01:56;;;;;;;22.38;11.88;;;3.00;84.10;;;;;;5052337;28;20029;-90
2021/01/24 00:04:22;;;;;;;20.08;9.52;;;3.00;84.20;;;;;;5054356;28;20024;-91
2021/01/24 00:06:47;;;;;;;18.63;10.38;;;3.00;84.20;;;;;;5054301;28;20036;-91
2021/01/24 00:09:13;;;;;;;19.95;11.98;;;3.00;84.70;;;;;;5054501;28;20021;-90
2021/01/24 00:11:38;;;;;;;19.30;11.13;;;3.00;84.20;;;;;;5058825;28;20489;-91
2021/01/24 00:14:04;;;;;;;17.70;10.80;;;3.00;84.20;;;;;;5074207;28;20107;-91
2021/01/24 00:16:30;;;;;;;22.48;11.75;;;3.00;84.20;;;;;;5055472;28;20032;-91
2021/01/24 00:18:55;;;;;;;17.90;10.77;;;3.00;84.20;;;;;;5054975;28;20294;-91
2021/01/24 00:21:21;;;;;;;20.25;11.07;;;3.00;84.20;;;;;;5054894;28;20482;-91
2021/01/24 00:23:46;;;;;;;19.90;11.27;;;3.00;84.30;;;;;;5075097;28;20027;-91
2021/01/24 00:26:12;;;;;;;23.80;12.50;;;3.00;84.30;;;;;;5059993;28;20035;-91
2021/01/24 00:28:37;;;;;;;20.40;11.18;;;2.90;84.40;;;;;;5054996;28;20111;-91
2021/01/24 00:31:04;;;;;;;24.15;11.55;;;2.90;84.50;;;;;;5062564;28;20042;-91
2021/01/24 00:33:29;;;;;;;25.02;12.07;;;2.80;84.60;;;;;;5063265;28;20054;-91
2021/01/24 00:35:55;;;;;;;20.00;10.65;;;2.80;84.90;;;;;;5055220;28;20025;-91
2021/01/24 00:38:20;;;;;;;19.20;11.10;;;2.70;85.00;;;;;;5054376;28;20074;-91
2021/01/24 00:40:46;;;;;;;20.15;10.20;;;2.70;85.30;;;;;;5060917;28;20035;-91
2021/01/24 00:43:11;;;;;;;23.38;11.90;;;2.60;85.70;;;;;;5074579;28;20081;-91
2021/01/24 00:45:37;;;;;;;20.77;11.45;;;2.60;85.40;;;;;;5054390;28;20139;-91
2021/01/24 00:48:03;;;;;;;19.85;10.77;;;2.60;85.60;;;;;;5054360;28;20020;-91
2021/01/24 00:50:28;;;;;;;22.08;10.35;;;2.60;85.60;;;;;;5037741;28;20056;-91
2021/01/24 00:52:54;;;;;;;20.92;10.98;;;2.60;85.70;;;;;;5067241;28;20032;-91
2021/01/24 00:55:19;;;;;;;21.27;10.60;;;2.60;85.70;;;;;;5060581;28;20029;-91
2021/01/24 00:57:45;;;;;;;22.30;11.10;;;2.60;85.70;;;;;;5054209;28;20519;-91
2021/01/24 01:00:11;;;;;;;19.65;10.25;;;2.60;86.30;;;;;;5054035;28;20116;-91
2021/01/24 01:02:37;;;;;;;21.10;10.05;;;2.60;85.80;;;;;;5050432;28;20120;-91
2021/01/24 01:05:04;;;;;;;17.85;9.63;;;2.60;85.80;;;;;;5076905;28;20047;-91
2021/01/24 01:07:29;;;;;;;16.75;9.18;;;2.50;85.70;;;;;;5072578;28;20416;-91
2021/01/24 01:09:55;;;;;;;20.73;9.43;;;2.50;85.80;;;;;;5068418;28;20024;-91
2021/01/24 01:12:21;;;;;;;19.50;9.95;;;2.50;85.90;;;;;;5057217;28;20059;-90
2021/01/24 01:14:46;;;;;;;16.27;8.38;;;2.40;85.80;;;;;;5057820;28;20032;-91
2021/01/24 01:17:12;;;;;;;18.60;9.52;;;2.40;85.90;;;;;;5057553;28;20521;-91
2021/01/24 01:19:37;;;;;;;17.35;9.00;;;2.40;85.90;;;;;;5057793;28;20033;-91
2021/01/24 01:22:03;;;;;;;16.00;8.45;;;2.30;86.50;;;;;;5057865;28;20048;-92
2021/01/24 01:24:28;;;;;;;15.13;7.97;;;2.40;86.20;;;;;;5057802;28;20025;-91
2021/01/24 01:26:54;;;;;;;14.50;7.78;;;2.30;86.20;;;;;;5056920;28;20509;-92
2021/01/24 01:29:19;;;;;;;14.75;8.23;;;2.30;86.20;;;;;;5057020;28;20032;-91
2021/01/24 01:31:45;;;;;;;13.68;7.13;;;2.30;86.20;;;;;;5059539;28;20013;-91
2021/01/24 01:34:11;;;;;;;13.38;7.95;;;2.30;86.20;;;;;;5058948;28;20025;-92
2021/01/24 01:36:37;;;;;;;14.60;7.57;;;2.30;86.30;;;;;;5058471;28;20504;-90
2021/01/24 01:39:03;;;;;;;12.88;7.63;;;2.30;86.30;;;;;;5057646;28;20033;-90
2021/01/24 01:41:33;;;;;;;14.35;7.30;;;2.30;86.30;;;;;;5093325;28;20020;-91
2021/01/24 01:44:00;;;;;;;14.63;7.30;;;2.30;86.40;;;;;;5060212;28;20024;-91
2021/01/24 01:46:27;;;;;;;12.60;6.78;;;2.30;86.40;;;;;;5057652;28;20025;-89
2021/01/24 01:48:53;;;;;;;12.52;6.53;;;2.30;86.60;;;;;;5059020;28;20029;-91
2021/01/24 01:51:19;;;;;;;9.90;6.05;;;2.30;86.50;;;;;;5057788;28;20019;-91
2021/01/24 01:53:45;;;;;;;10.50;6.28;;;2.30;86.60;;;;;;5057371;28;20048;-91
2021/01/24 01:56:12;;;;;;;11.43;5.90;;;2.40;86.60;;;;;;5060366;28;20090;-92
2021/01/24 01:58:38;;;;;;;10.95;6.00;;;2.30;86.50;;;;;;5058397;28;20394;-91
2021/01/24 02:01:10;;;;;;;9.80;5.93;;;2.40;86.60;;;;;;5056149;28;20020;-92
2021/01/24 02:04:02;;;;;;;;;;;2.30;86.60;;;;;;5056403;28;20746;-92
2021/01/24 02:06:51;;;;;;;8.60;5.47;;;2.40;86.40;;;;;;5057396;28;19904;-92
2021/01/24 02:09:33;;;;;;;9.98;6.35;;;2.40;86.30;;;;;;5057480;28;20470;-92
2021/01/24 02:12:18;;;;;;;7.82;5.53;;;2.50;86.30;;;;;;5057768;28;20017;-90
2021/01/24 02:15:02;;;;;;;8.00;5.40;;;2.50;86.20;;;;;;5067812;28;20029;-91
2021/01/24 02:17:32;;;;;;;8.35;4.57;;;2.60;86.30;;;;;;5056354;28;20482;-92
2021/01/24 02:19:58;;;;;;;8.43;4.50;;;2.60;86.10;;;;;;5055594;28;20024;-91
2021/01/24 02:22:27;;;;;;;7.68;4.47;;;2.60;86.10;;;;;;5089145;28;20497;-91
2021/01/24 02:25:35;;;;;;;7.10;4.63;;;2.60;86.20;;;;;;5062618;28;20099;-90
2021/01/24 02:28:19;;;;;;;8.82;5.65;;;2.70;86.20;;;;;;5051429;28;20037;-91
2021/01/24 02:30:46;;;;;;;7.80;5.50;;;2.70;86.10;;;;;;5056453;28;20081;-91
2021/01/24 02:33:17;;;;;;;9.32;6.35;;;2.70;86.00;;;;;;5054978;28;20386;-91
2021/01/24 02:35:47;;;;;;;9.10;5.72;;;2.70;86.00;;;;;;5056014;28;20082;-91
2021/01/24 02:38:14;;;;;;;9.13;5.70;;;2.70;86.10;;;;;;5036962;28;20025;-91
2021/01/24 02:40:41;;;;;;;6.57;5.07;;;2.60;86.10;;;;;;5088859;28;20059;-91
2021/01/24 02:43:08;;;;;;;8.45;5.32;;;2.60;86.30;;;;;;5063003;28;20036;-91
2021/01/24 02:45:35;;;;;;;9.13;5.57;;;2.60;86.50;;;;;;5055121;28;20017;-91
2021/01/24 02:48:02;;;;;;;7.57;5.10;;;2.60;86.60;;;;;;5055601;28;20031;-91
2021/01/24 02:50:30;;;;;;;10.27;5.30;;;2.60;86.60;;;;;;5055975;28;20032;-90
2021/01/24 02:52:59;;;;;;;7.75;5.07;;;2.60;86.70;;;;;;5055033;28;20514;-91
2021/01/24 02:55:26;;;;;;;9.43;5.78;;;2.70;86.60;;;;;;5055275;28;20032;-91
2021/01/24 02:57:52;;;;;;;8.88;5.47;;;2.70;86.60;;;;;;5074120;28;20168;-91
2021/01/24 03:00:19;;;;;;;8.38;4.90;;;2.70;86.60;;;;;;5057284;28;20036;-91
2021/01/24 03:02:45;;;;;;;6.18;4.90;;;2.70;86.70;;;;;;5055360;28;20032;-91
2021/01/24 03:05:11;;;;;;;6.25;4.47;;;2.60;86.50;;;;;;5056209;28;20077;-91
2021/01/24 03:07:38;;;;;;;4.30;3.80;;;2.60;86.80;;;;;;5056422;28;20087;-91
2021/01/24 03:10:04;;;;;;;3.40;3.03;;;2.50;87.00;;;;;;5056024;28;20024;-91
2021/01/24 03:12:34;;;;;;;2.85;2.55;;;2.40;87.40;;;;;;5056257;28;20032;-90
2021/01/24 03:15:02;;;;;;;2.15;1.92;;;2.40;87.70;;;;;;5055621;28;20417;-90
2021/01/24 03:17:30;;;;;;;1.80;1.70;;;2.40;87.90;;;;;;5055254;28;20028;-91
2021/01/24 03:19:58;;;;;;;1.90;1.70;;;2.30;88.00;;;;;;5088994;28;20052;-90
2021/01/24 03:22:24;;;;;;;1.70;1.60;;;2.30;88.30;;;;;;5055011;28;20033;-90
2021/01/24 03:24:52;;;;;;;1.50;1.40;;;2.20;88.30;;;;;;5055292;28;20059;-92
2021/01/24 03:27:18;;;;;;;3.25;1.80;;;2.20;88.30;;;;;;5055500;28;20073;-91
2021/01/24 03:29:44;;;;;;;1.65;1.55;;;2.20;88.50;;;;;;5056776;28;20032;-91
2021/01/24 03:32:09;;;;;;;1.80;1.70;;;2.20;88.90;;;;;;5058909;28;20029;-91
2021/01/24 03:34:35;;;;;;;1.77;1.38;;;2.10;88.70;;;;;;5054871;28;20584;-91
2021/01/24 03:37:01;;;;;;;1.52;1.40;;;2.10;88.80;;;;;;5054223;28;20047;-92
2021/01/24 03:39:27;;;;;;;1.35;1.10;;;2.10;88.90;;;;;;5054953;28;20035;-91
2021/01/24 03:41:52;;;;;;;1.58;1.30;;;2.10;88.80;;;;;;5055176;28;20486;-91
2021/01/24 03:44:18;;;;;;;1.50;1.40;;;2.10;88.90;;;;;;5055822;28;20021;-91
2021/01/24 03:46:43;;;;;;;1.50;1.40;;;2.00;89.00;;;;;;5059838;28;20035;-91
2021/01/24 03:49:09;;;;;;;1.35;1.33;;;2.00;89.10;;;;;;5057315;28;20028;-91
2021/01/24 03:51:35;;;;;;;1.63;1.52;;;2.00;89.10;;;;;;5056479;28;20025;-92
2021/01/24 03:54:01;;;;;;;2.75;1.88;;;1.90;89.20;;;;;;5054600;28;20020;-91
2021/01/24 03:56:26;;;;;;;2.70;2.50;;;2.00;89.70;;;;;;5055148;28;20028;-91
2021/01/24 03:58:52;;;;;;;2.65;2.30;;;2.00;89.70;;;;;;5054703;28;20394;-90
2021/01/24 04:03:45;;;;;;;2.42;2.22;;;2.00;89.80;;;;;;5055338;28;20080;-65
2021/01/24 04:06:11;;;;;;;3.78;3.10;;;1.90;89.60;;;;;;5059705;28;20025;-65
2021/01/24 04:08:36;;;;;;;3.30;2.78;;;1.90;89.60;;;;;;5069930;28;20159;-65
2021/01/24 04:11:02;;;;;;;3.78;3.20;;;1.90;89.70;;;;;;5052277;28;20033;-66
2021/01/24 04:13:28;;;;;;;4.85;3.10;;;1.90;90.00;;;;;;5068083;28;20123;-66
2021/01/24 04:15:54;;;;;;;5.68;3.58;;;1.90;89.50;;;;;;5069318;28;20033;-66
2021/01/24 04:18:19;;;;;;;5.60;3.83;;;1.90;89.40;;;;;;5069325;28;20040;-66
2021/01/24 04:20:45;;;;;;;4.53;4.13;;;1.90;89.40;;;;;;5069417;28;20044;-66
2021/01/24 04:23:11;;;;;;;6.75;4.72;;;1.90;89.20;;;;;;5068686;28;20433;-65
2021/01/24 04:25:37;;;;;;;5.50;4.20;;;1.90;89.50;;;;;;5068464;28;20059;-66
2021/01/24 04:28:02;;;;;;;7.30;4.70;;;1.90;88.80;;;;;;5069519;28;20059;-66
2021/01/24 04:30:28;;;;;;;7.32;4.72;;;1.90;88.40;;;;;;5070020;28;20096;-65
2021/01/24 04:32:53;;;;;;;6.88;4.43;;;1.90;88.20;;;;;;5067857;28;20449;-66
2021/01/24 04:35:19;;;;;;;7.75;5.45;;;2.00;88.30;;;;;;5068892;28;20028;-66
2021/01/24 04:37:45;;;;;;;8.25;5.63;;;2.10;87.50;;;;;;5068741;28;20071;-66
2021/01/24 04:40:11;;;;;;;6.90;4.57;;;2.10;87.40;;;;;;5069516;28;20032;-66
2021/01/24 04:42:37;;;;;;;8.02;5.47;;;2.10;86.80;;;;;;5069019;28;20028;-66
2021/01/24 04:45:05;;;;;;;8.98;5.55;;;2.10;86.80;;;;;;5071854;28;20039;-66
2021/01/24 04:47:31;;;;;;;9.32;5.90;;;2.10;86.90;;;;;;5072549;28;20615;-66
2021/01/24 04:49:57;;;;;;;9.90;6.53;;;2.10;86.80;;;;;;5055270;28;20025;-65
2021/01/24 04:52:23;;;;;;;8.15;5.20;;;2.10;87.00;;;;;;5057692;28;20503;-66
2021/01/24 04:54:50;;;;;;;8.68;5.68;;;2.10;86.90;;;;;;5053429;28;20539;-66
2021/01/24 04:57:16;;;;;;;7.85;6.15;;;2.10;86.80;;;;;;5072805;28;20077;-66
2021/01/24 04:59:41;;;;;;;8.23;5.25;;;2.10;86.40;;;;;;5073404;28;20111;-66
2021/01/24 05:02:09;;;;;;;9.80;5.78;;;2.00;86.20;;;;;;5068733;28;20028;-66
2021/01/24 05:04:35;;;;;;;11.20;6.30;;;2.00;86.00;;;;;;5052255;28;20017;-66
2021/01/24 05:07:00;;;;;;;8.75;5.30;;;2.00;86.20;;;;;;5070983;28;20020;-66
2021/01/24 05:09:26;;;;;;;12.00;6.57;;;1.90;86.40;;;;;;5072933;28;20476;-66
2021/01/24 05:11:52;;;;;;;10.50;6.53;;;1.90;86.60;;;;;;5071275;28;20020;-65
2021/01/24 05:14:24;;;;;;;7.80;5.50;;;1.90;86.60;;;;;;5071741;28;20096;-65
2021/01/24 05:16:51;;;;;;;8.03;5.30;;;1.90;86.10;;;;;;5072776;28;20391;-65
2021/01/24 05:19:19;;;;;;;10.00;5.35;;;1.80;86.30;;;;;;5072350;28;20282;-65
2021/01/24 05:21:46;;;;;;;7.45;4.93;;;1.80;86.40;;;;;;5071259;28;20037;-66
2021/01/24 05:24:15;;;;;;;9.85;5.25;;;1.80;86.00;;;;;;5071495;28;20055;-66
2021/01/24 05:26:49;;;;;;;7.47;5.60;;;1.80;86.20;;;;;;5053792;28;20025;-65
2021/01/24 05:29:27;;;;;;;7.32;4.65;;;1.80;85.90;;;;;;5060873;28;20400;-66
2021/01/24 05:31:54;;;;;;;7.20;4.95;;;1.80;85.90;;;;;;5052088;28;20029;-65
2021/01/24 05:34:27;;;;;;;6.63;5.50;;;1.70;85.60;;;;;;5064393;28;20047;-65
2021/01/24 05:36:53;;;;;;;7.20;4.20;;;1.70;85.30;;;;;;5072939;28;20020;-66
2021/01/24 05:39:20;;;;;;;9.07;4.43;;;1.70;85.40;;;;;;5072312;28;20025;-66
2021/01/24 05:41:50;;;;;;;7.68;4.25;;;1.70;85.60;;;;;;5071698;28;20013;-65
2021/01/24 05:44:17;;;;;;;9.07;4.60;;;1.70;85.60;;;;;;5070881;28;20025;-66
2021/01/24 05:46:43;;;;;;;9.18;4.20;;;1.70;85.40;;;;;;5072477;28;20082;-65
2021/01/24 05:49:11;;;;;;;6.38;4.57;;;1.70;85.00;;;;;;5054818;28;20385;-65
2021/01/24 05:51:37;;;;;;;17.38;4.63;;;1.70;85.10;;;;;;5071369;28;20021;-65
2021/01/24 05:54:03;;;;;;;5.38;3.65;;;1.70;84.60;;;;;;5070204;28;20032;-66
2021/01/24 05:56:29;;;;;;;7.65;4.70;;;1.70;84.50;;;;;;5070428;28;20047;-65
2021/01/24 05:59:03;;;;;;;5.80;4.20;;;1.70;84.50;;;;;;5054469;28;20028;-66
2021/01/24 06:01:29;;;;;;;6.40;4.25;;;1.70;84.30;;;;;;5070163;28;20036;-65
2021/01/24 06:03:58;;;;;;;6.20;4.00;;;1.70;84.10;;;;;;5061630;28;20085;-66
2021/01/24 06:06:25;;;;;;;5.78;4.18;;;1.70;83.60;;;;;;5071689;28;20027;-66
2021/01/24 06:08:50;;;;;;;6.93;4.60;;;1.60;83.70;;;;;;5071905;28;20452;-67
2021/01/24 06:11:17;;;;;;;6.43;3.97;;;1.60;83.80;;;;;;5070278;28;20028;-66
2021/01/24 06:13:47;;;;;;;8.30;4.10;;;1.60;83.60;;;;;;5071161;28;20035;-67
2021/01/24 06:16:19;;;;;;;3.92;3.30;;;1.60;83.60;;;;;;5071100;28;20020;-67
2021/01/24 06:19:08;;;;;;;5.70;4.07;;;1.60;83.00;;;;;;5071767;28;20048;-66
2021/01/24 06:21:39;;;;;;;6.57;3.35;;;1.60;83.20;;;;;;5069812;28;20459;-66
2021/01/24 06:24:18;;;;;;;7.18;3.63;;;1.60;82.70;;;;;;5052278;28;20021;-66
2021/01/24 06:26:48;;;;;;;4.30;3.53;;;1.60;81.80;;;;;;5064365;28;20017;-67
2021/01/24 06:29:15;;;;;;;6.85;3.53;;;1.60;82.30;;;;;;5071890;28;20467;-65
2021/01/24 06:31:48;;;;;;;5.75;3.33;;;1.60;82.50;;;;;;5068105;28;20043;-66
2021/01/24 06:34:14;;;;;;;4.43;3.40;;;1.60;81.80;;;;;;5055714;28;20485;-66
2021/01/24 06:37:08;;;;;;;5.13;3.90;;;1.60;81.90;;;;;;5071328;28;20075;-66
2021/01/24 06:39:52;;;;;;;7.97;3.53;;;1.60;81.50;;;;;;5057019;28;20028;-67
2021/01/24 06:42:37;;;;;;;4.82;3.33;;;1.50;81.90;;;;;;5070074;28;20499;-67
2021/01/24 06:45:27;;;;;;;8.02;3.53;;;1.50;82.00;;;;;;5070379;28;20075;-66
2021/01/24 06:47:57;;;;;;;4.60;3.50;;;1.50;81.70;;;;;;5070869;28;20103;-66
2021/01/24 06:50:41;;;;;;;7.78;3.80;;;1.40;81.20;;;;;;5070875;28;20028;-66
2021/01/24 06:53:08;;;;;;;6.10;3.50;;;1.40;81.30;;;;;;5071148;28;20025;-66
2021/01/24 06:55:36;;;;;;;5.82;3.22;;;1.40;81.50;;;;;;5069546;28;20025;-67
2021/01/24 06:58:31;;;;;;;4.00;3.47;;;1.40;81.20;;;;;;5070832;28;20081;-67
2021/01/24 07:01:24;;;;;;;4.22;2.92;;;1.40;80.90;;;;;;5070806;28;20028;-67
2021/01/24 07:06:47;;;;;;;3.92;2.97;;;1.40;80.30;;;;;;5069903;28;20021;-66
2021/01/24 07:09:25;;;;;;;3.85;3.05;;;1.40;79.90;;;;;;5069940;28;20028;-66
2021/01/24 07:12:02;;;;;;;7.85;3.38;;;1.30;79.90;;;;;;5051380;28;20548;-66
2021/01/24 07:14:37;;;;;;;4.35;3.08;;;1.30;79.50;;;;;;5069826;28;20079;-66
2021/01/24 07:17:04;;;;;;;6.60;3.22;;;1.30;79.70;;;;;;5070628;28;20040;-66
2021/01/24 07:19:31;;;;;;;4.18;3.05;;;1.40;79.80;;;;;;5070160;28;20028;-66
2021/01/24 07:21:58;;;;;;;9.18;3.17;;;1.40;79.80;;;;;;5070052;28;20024;-65
2021/01/24 07:24:25;;;;;;;4.68;3.53;;;1.40;79.60;;;;;;5069349;28;20024;-66
2021/01/24 07:26:54;;;;;;;4.70;3.15;;;1.40;79.80;;;;;;5070140;28;20115;-67
2021/01/24 07:29:20;;;;;;;6.95;3.72;;;1.40;80.10;;;;;;5071424;28;20020;-66
2021/01/24 07:31:46;;;;;;;7.97;4.80;;;1.30;80.10;;;;;;5068918;28;20166;-66
2021/01/24 07:34:13;;;;;;;8.40;4.22;;;1.30;81.20;;;;;;5070850;28;20070;-65
2021/01/24 07:36:40;;;;;;;6.88;4.60;;;1.20;81.90;;;;;;5072509;28;20035;-66
2021/01/24 07:39:06;;;;;;;10.15;5.80;;;1.10;82.80;;;;;;5070691;28;20017;-65
2021/01/24 07:41:31;;;;;;;9.95;6.55;;;1.00;83.50;;;;;;5069594;28;20043;-66
2021/01/24 07:43:57;;;;;;;11.27;6.43;;;1.00;83.90;;;;;;5051188;28;20085;-67
2021/01/24 07:46:23;;;;;;;10.77;6.22;;;0.90;84.50;;;;;;5070416;28;20093;-66
2021/01/24 07:48:48;;;;;;;11.70;5.53;;;0.80;84.40;;;;;;5070740;28;20100;-66
2021/01/24 07:51:15;;;;;;;10.00;5.97;;;0.80;84.80;;;;;;5069558;28;20063;-66
2021/01/24 07:53:41;;;;;;;9.00;6.78;;;0.80;85.40;;;;;;5068831;28;20040;-66
2021/01/24 07:56:07;;;;;;;9.48;6.43;;;0.80;85.40;;;;;;5050251;28;20060;-66
2021/01/24 07:58:33;;;;;;;14.20;7.90;;;0.80;85.50;;;;;;5050763;28;20491;-65
2021/01/24 08:00:59;;;;;;;9.75;6.00;;;0.80;85.80;;;;;;5069464;28;20028;-66
2021/01/24 08:03:26;;;;;;;12.07;6.53;;;0.80;86.10;;;;;;5064183;28;20021;-66
2021/01/24 08:05:52;;;;;;;25.13;8.85;;;0.70;86.20;;;;;;5068207;28;20471;-66
2021/01/24 08:08:17;;;;;;;12.68;6.35;;;0.80;87.00;;;;;;5070227;28;20048;-65
2021/01/24 08:10:43;;;;;;;12.18;7.05;;;0.70;86.80;;;;;;5070336;28;20037;-67
2021/01/24 08:13:09;;;;;;;11.07;6.00;;;0.80;87.10;;;;;;5067963;28;20567;-67
2021/01/24 08:15:34;;;;;;;13.27;7.93;;;0.80;87.10;;;;;;5068720;28;20460;-66
2021/01/24 08:18:01;;;;;;;8.30;5.75;;;0.80;87.20;;;;;;5069362;28;20035;-65
2021/01/24 08:20:28;;;;;;;17.05;7.45;;;0.80;87.00;;;;;;5073408;28;20043;-66
2021/01/24 08:22:54;;;;;;;15.57;7.40;;;0.80;87.20;;;;;;5072621;28;20032;-66
2021/01/24 08:25:20;;;;;;;12.82;7.00;;;0.80;87.30;;;;;;5071353;28;20040;-67
2021/01/24 08:27:47;;;;;;;14.13;7.32;;;0.90;87.30;;;;;;5072559;28;20028;-66
2021/01/24 08:30:14;;;;;;;9.77;6.22;;;0.90;87.20;;;;;;5073861;28;20020;-66
2021/01/24 08:32:41;;;;;;;11.93;6.63;;;0.90;87.50;;;;;;5071310;28;20440;-65
2021/01/24 08:35:08;;;;;;;10.13;6.47;;;0.90;87.30;;;;;;5053992;28;20503;-66
2021/01/24 08:37:35;;;;;;;8.98;5.53;;;1.00;87.40;;;;;;5053871;28;20115;-66
2021/01/24 08:40:03;;;;;;;11.98;6.10;;;0.90;87.30;;;;;;5071034;28;20028;-65
2021/01/24 08:42:43;;;;;;;9.80;5.40;;;0.90;87.30;;;;;;5070704;28;20166;-66
2021/01/24 08:45:09;;;;;;;13.40;5.85;;;0.90;87.30;;;;;;5062934;28;20107;-66
2021/01/24 08:47:35;;;;;;;10.82;6.88;;;1.00;87.50;;;;;;5072034;28;20044;-66
2021/01/24 08:50:09;;;;;;;11.18;6.03;;;1.00;87.60;;;;;;5073051;28;20092;-66
2021/01/24 08:52:35;;;;;;;11.88;6.53;;;1.00;87.50;;;;;;5071978;28;20028;-66
2021/01/24 08:55:04;;;;;;;6.30;4.68;;;1.10;87.50;;;;;;5072894;28;20377;-66
2021/01/24 08:57:32;;;;;;;7.80;5.25;;;1.10;87.30;;;;;;5072581;28;20111;-66
2021/01/24 09:00:06;;;;;;;13.25;7.35;;;1.10;87.20;;;;;;5072597;28;20095;-65
2021/01/24 09:02:37;;;;;;;12.10;7.53;;;1.10;87.10;;;;;;5068809;28;20056;-65
2021/01/24 09:05:08;;;;;;;48.30;29.13;;;1.20;87.90;;;;;;5066720;28;20023;-66
2021/01/24 09:07:41;;;;;;;10.68;6.50;;;1.20;87.30;;;;;;5073055;28;20485;-65
2021/01/24 09:10:24;;;;;;;13.50;8.48;;;1.30;87.20;;;;;;5072908;28;20576;-65
2021/01/24 09:12:52;;;;;;;14.38;7.32;;;1.30;87.20;;;;;;5071957;28;20392;-66
2021/01/24 09:15:19;;;;;;;9.57;5.82;;;1.30;87.00;;;;;;5071792;28;20111;-66
2021/01/24 09:17:48;;;;;;;13.77;5.82;;;1.40;87.00;;;;;;5072000;28;20035;-66
2021/01/24 09:20:14;;;;;;;8.90;5.40;;;1.40;86.90;;;;;;5071970;28;20078;-66
2021/01/24 09:22:40;;;;;;;11.00;5.30;;;1.30;86.80;;;;;;5064319;28;20032;-66
2021/01/24 09:25:06;;;;;;;10.90;6.25;;;1.40;87.00;;;;;;5070859;28;20012;-66
2021/01/24 09:27:32;;;;;;;14.40;7.20;;;1.40;87.20;;;;;;5047158;28;20024;-66
2021/01/24 09:29:57;;;;;;;9.38;4.95;;;1.40;87.30;;;;;;5070563;28;20035;-66
2021/01/24 09:32:23;;;;;;;7.90;6.25;;;1.40;87.50;;;;;;5071763;28;20028;-66
2021/01/24 09:34:49;;;;;;;10.48;5.68;;;1.50;87.20;;;;;;5071771;28;20086;-66
2021/01/24 09:37:14;;;;;;;6.32;4.43;;;1.50;87.20;;;;;;5055816;28;20107;-66
2021/01/24 09:39:40;;;;;;;8.90;5.90;;;1.50;87.20;;;;;;5072666;28;20384;-66
2021/01/24 09:42:06;;;;;;;11.20;5.47;;;1.50;87.10;;;;;;5055006;28;20445;-66
2021/01/24 09:44:32;;;;;;;5.97;5.18;;;1.50;87.00;;;;;;5064940;28;20037;-66
2021/01/24 09:46:58;;;;;;;8.18;5.13;;;1.50;87.00;;;;;;5072380;28;20473;-66
2021/01/24 09:49:24;;;;;;;10.50;5.18;;;1.50;87.20;;;;;;5070979;28;20707;-66
2021/01/24 09:51:50;;;;;;;10.75;6.05;;;1.50;87.20;;;;;;5068745;28;20740;-66
2021/01/24 09:54:17;;;;;;;11.23;5.43;;;1.50;87.20;;;;;;5071247;28;20047;-66
2021/01/24 09:56:44;;;;;;;9.95;5.68;;;1.50;87.10;;;;;;5054007;28;20074;-66
2021/01/24 09:59:11;;;;;;;10.23;6.03;;;1.50;87.10;;;;;;5072118;28;20040;-66
2021/01/24 10:01:37;;;;;;;8.45;5.47;;;1.50;87.40;;;;;;5080293;22;20045;-66
2021/01/24 10:04:03;;;;;;;14.35;7.55;;;1.50;87.00;;;;;;5086260;28;20024;-66
2021/01/24 10:06:28;;;;;;;15.70;8.00;;;1.50;87.10;;;;;;5064604;28;20823;-66
2021/01/24 10:08:54;;;;;;;7.65;4.68;;;1.50;86.90;;;;;;5086936;28;20651;-67
2021/01/24 10:11:21;;;;;;;6.63;4.60;;;1.50;86.80;;;;;;5064864;28;20027;-67
2021/01/24 10:13:47;;;;;;;12.45;5.40;;;1.50;87.10;;;;;;5066317;28;20056;-66
2021/01/24 10:16:13;;;;;;;7.10;5.30;;;1.50;87.20;;;;;;5073458;28;20052;-67
2021/01/24 10:18:39;;;;;;;10.10;5.65;;;1.40;87.40;;;;;;5069164;28;20090;-66
2021/01/24 10:21:05;;;;;;;11.55;7.57;;;1.40;87.40;;;;;;5070661;28;20051;-66
2021/01/24 10:23:30;;;;;;;10.57;5.82;;;1.40;87.60;;;;;;5060447;28;20078;-66
2021/01/24 10:25:57;;;;;;;9.35;5.55;;;1.50;87.70;;;;;;5072603;28;20028;-67
2021/01/24 10:28:26;;;;;;;8.27;5.80;;;1.50;87.70;;;;;;5076496;28;20036;-67
2021/01/24 10:30:53;;;;;;;6.25;5.00;;;1.50;87.60;;;;;;5070348;28;20029;-66
2021/01/24 10:33:20;;;;;;;9.40;5.13;;;1.50;87.30;;;;;;5071377;28;20021;-67
2021/01/24 10:35:46;;;;;;;11.20;7.22;;;1.50;87.30;;;;;;5068340;28;20028;-65
2021/01/24 10:38:13;;;;;;;9.32;6.05;;;1.60;87.30;;;;;;5071759;28;20035;-66
2021/01/24 10:40:38;;;;;;;10.75;6.53;;;1.70;87.30;;;;;;5070011;28;20028;-67
2021/01/24 10:43:06;;;;;;;11.75;6.50;;;1.70;86.90;;;;;;5062130;28;20024;-66
2021/01/24 10:45:33;;;;;;;15.45;8.88;;;1.80;87.30;;;;;;5070259;28;20051;-67
2021/01/24 10:48:00;;;;;;;10.98;6.43;;;1.80;86.90;;;;;;5089313;28;20028;-66
2021/01/24 10:50:26;;;;;;;8.23;5.53;;;1.80;87.00;;;;;;5073254;28;20086;-67
2021/01/24 10:52:51;;;;;;;8.35;6.50;;;1.80;86.60;;;;;;5072951;28;20028;-66
2021/01/24 10:55:17;;;;;;;12.18;6.30;;;1.80;86.60;;;;;;5075585;28;20477;-65
2021/01/24 10:57:43;;;;;;;8.70;5.55;;;1.80;86.40;;;;;;5063665;28;20384;-66
2021/01/24 11:00:09;;;;;;;12.88;8.65;;;1.80;86.70;;;;;;5093113;28;20032;-64
2021/01/24 11:02:35;;;;;;;9.10;6.10;;;1.80;86.60;;;;;;5071774;28;20032;-66
2021/01/24 11:05:01;;;;;;;9.75;5.85;;;1.80;86.70;;;;;;5070485;28;20024;-66
2021/01/24 11:07:27;;;;;;;7.78;5.20;;;1.80;86.70;;;;;;5071492;28;20028;-66
2021/01/24 11:09:54;;;;;;;6.78;4.90;;;1.90;86.60;;;;;;5058167;28;20119;-66
2021/01/24 11:12:20;;;;;;;6.45;5.70;;;1.90;86.60;;;;;;5060335;28;20492;-66
2021/01/24 11:14:45;;;;;;;8.98;4.70;;;1.80;86.60;;;;;;5059377;28;20040;-66
2021/01/24 11:17:11;;;;;;;6.40;5.53;;;1.90;86.60;;;;;;5059621;28;20025;-65
2021/01/24 11:19:37;;;;;;;8.32;4.72;;;1.90;86.40;;;;;;5065593;28;20055;-67
2021/01/24 11:22:03;;;;;;;9.65;5.35;;;1.90;86.20;;;;;;5068322;28;20073;-67
2021/01/24 11:24:29;;;;;;;5.57;4.82;;;1.90;86.40;;;;;;5069951;28;20036;-66
2021/01/24 11:26:54;;;;;;;6.57;4.55;;;1.90;86.20;;;;;;5068058;28;20024;-66
2021/01/24 11:29:20;;;;;;;5.78;4.32;;;1.90;86.10;;;;;;5072248;28;20028;-66
2021/01/24 11:31:46;;;;;;;16.00;5.43;;;1.90;86.00;;;;;;5065166;28;20396;-67
2021/01/24 11:34:11;;;;;;;6.45;4.38;;;1.90;86.00;;;;;;5061852;28;20023;-68
2021/01/24 11:36:37;;;;;;;7.35;5.00;;;1.90;86.00;;;;;;5065610;28;20158;-66
2021/01/24 11:39:04;;;;;;;6.47;4.32;;;1.80;86.10;;;;;;5071645;28;20077;-68
2021/01/24 11:41:30;;;;;;;6.70;4.40;;;1.80;86.10;;;;;;5072563;28;20032;-66
2021/01/24 11:43:55;;;;;;;8.65;5.07;;;1.80;86.20;;;;;;5073154;28;20028;-67
2021/01/24 11:46:21;;;;;;;8.15;5.25;;;1.80;86.30;;;;;;5060215;28;20025;-66
2021/01/24 11:48:47;;;;;;;7.60;5.20;;;1.80;86.10;;;;;;5075888;28;20384;-67
2021/01/24 11:51:12;;;;;;;6.78;4.65;;;1.70;86.30;;;;;;5070457;28;20373;-65
2021/01/24 11:53:38;;;;;;;5.85;4.10;;;1.80;86.10;;;;;;5069791;28;20031;-67
2021/01/24 11:56:05;;;;;;;9.02;4.53;;;1.80;86.40;;;;;;5071947;28;20043;-68
2021/01/24 11:58:30;;;;;;;6.10;4.75;;;1.80;86.30;;;;;;5076239;28;20158;-67
2021/01/24 12:00:56;;;;;;;4.78;4.18;;;1.80;86.60;;;;;;5067713;28;20082;-67
2021/01/24 12:03:22;;;;;;;6.72;4.43;;;1.80;86.50;;;;;;5069614;28;20029;-66
2021/01/24 12:05:47;;;;;;;5.90;4.28;;;1.80;86.10;;;;;;5070443;28;20021;-67
2021/01/24 12:08:13;;;;;;;6.80;4.47;;;1.80;86.10;;;;;;5067719;28;20032;-67
2021/01/24 12:10:39;;;;;;;6.78;4.35;;;1.80;86.20;;;;;;5065069;28;20057;-66
2021/01/24 12:13:05;;;;;;;7.05;4.47;;;1.80;86.40;;;;;;5069080;28;20544;-68
2021/01/24 12:15:31;;;;;;;8.18;5.05;;;1.80;85.90;;;;;;5067042;28;20035;-67
2021/01/24 12:17:56;;;;;;;6.85;4.82;;;1.80;86.20;;;;;;5068730;28;20029;-68
2021/01/24 12:20:22;;;;;;;10.88;4.60;;;1.80;86.20;;;;;;5068798;28;20033;-67
2021/01/24 12:22:48;;;;;;;4.82;3.72;;;1.90;86.10;;;;;;5070035;28;20056;-69
2021/01/24 12:25:13;;;;;;;7.75;4.60;;;1.90;86.00;;;;;;5069506;28;20077;-65
2021/01/24 12:27:39;;;;;;;6.57;3.97;;;1.90;85.40;;;;;;5068026;28;20120;-68
2021/01/24 12:30:05;;;;;;;6.10;4.40;;;1.90;85.10;;;;;;5068798;28;20103;-68
2021/01/24 12:32:31;;;;;;;7.25;3.90;;;2.00;84.90;;;;;;5069127;28;20050;-68
2021/01/24 12:34:56;;;;;;;5.80;3.72;;;2.00;85.10;;;;;;5069915;28;20492;-67
2021/01/24 12:37:22;;;;;;;3.83;3.45;;;2.00;85.00;;;;;;5069951;28;20024;-67
2021/01/24 12:39:48;;;;;;;6.28;3.75;;;2.10;85.10;;;;;;5070868;28;20032;-67
2021/01/24 12:42:13;;;;;;;4.82;4.10;;;2.10;85.10;;;;;;5068402;28;20047;-67
2021/01/24 12:44:39;;;;;;;7.03;4.32;;;2.10;84.70;;;;;;5068636;28;20017;-68
2021/01/24 12:47:09;;;;;;;5.45;3.90;;;2.10;84.00;;;;;;5068821;28;20020;-67
2021/01/24 12:49:35;;;;;;;4.05;3.40;;;2.10;84.40;;;;;;5052455;28;20066;-67
2021/01/24 12:52:01;;;;;;;5.32;3.67;;;2.10;84.50;;;;;;5069349;28;20024;-67
2021/01/24 12:54:27;;;;;;;6.68;3.72;;;2.20;84.20;;;;;;5068888;28;20049;-67
2021/01/24 12:56:53;;;;;;;5.28;3.70;;;2.20;84.20;;;;;;5064321;28;20067;-67
2021/01/24 12:59:18;;;;;;;5.20;4.00;;;2.20;84.60;;;;;;5069190;28;20400;-67
2021/01/24 13:01:44;;;;;;;7.30;3.95;;;2.20;84.30;;;;;;5068597;28;20036;-67